Tanglewood, Louisiana
Current Conditions -  °F | °C
As of 1:53 PM on Sunday 23 Nov 2014 (Local Time) from KAEX Reporting Station
Light Rain Light Rain  
Wind Chill: 71°   Ceiling: Unl
Heat Index: 71°   Visibility: 10mi
Dew Point: 60°   Wind: 14mph
Humidity: 68%   Direction: 210°SSW
Pressure: 29.51"   Gusts: NA
Location:  31.2655°N, 92.4705°W
Report Text: KAEX 231953Z 21012KT 10SM -RA FEW027 22/16 A2951 RMK AO2 SLP994 P0000 T02170156
Loading
Personal Weather Stations






























Interactive Weather Map New forecast layout! Learn more

10-Day Weather Forecast

Advertisements
Track Severe Weather on mobile